Time;durP1;ratioP1;P1;durP2;ratioP2;P2;SDS_P1;SDS_P2;PMS_P1;PMS_P2;Temp;Humidity;BMP_temperature;BMP_pressure;BME280_temperature;BME280_humidity;BME280_pressure;Samples;Min_cycle;Max_cycle;Signal;HPM_P1;HPM_P2
2022/11/09 00:01:18;;;;;;;5.70;1.77;;;13.40;99.90;;;;;;5071235;28;20037;-70
2022/11/09 00:03:43;;;;;;;7.25;1.98;;;13.40;99.90;;;;;;5070702;28;20053;-70
2022/11/09 00:06:09;;;;;;;5.45;1.83;;;13.50;99.90;;;;;;5052774;28;20048;-70
2022/11/09 00:08:38;;;;;;;8.48;1.88;;;13.40;99.90;;;;;;5052569;28;20045;-70
2022/11/09 00:11:06;;;;;;;5.15;1.90;;;13.40;99.90;;;;;;5070127;28;20127;-70
2022/11/09 00:13:35;;;;;;;4.60;1.77;;;13.50;99.90;;;;;;5037425;28;20044;-70
2022/11/09 00:16:01;;;;;;;7.05;2.00;;;13.60;99.90;;;;;;5053427;28;20508;-70
2022/11/09 00:18:28;;;;;;;6.18;1.60;;;13.60;99.90;;;;;;5054174;28;20079;-70
2022/11/09 00:20:54;;;;;;;4.85;1.90;;;13.60;99.90;;;;;;5052976;28;20041;-70
2022/11/09 00:23:20;;;;;;;6.13;1.92;;;13.60;99.90;;;;;;5053235;28;20047;-70
2022/11/09 00:25:46;;;;;;;7.55;1.90;;;13.50;99.90;;;;;;5036957;28;20044;-70
2022/11/09 00:28:13;;;;;;;7.35;2.00;;;13.50;99.90;;;;;;5053785;28;20127;-70
2022/11/09 00:30:39;;;;;;;6.07;2.22;;;13.50;99.90;;;;;;5053287;28;20513;-70
2022/11/09 00:33:05;;;;;;;6.10;2.45;;;13.60;99.90;;;;;;5070319;28;20481;-70
2022/11/09 00:35:30;;;;;;;7.43;2.30;;;13.50;99.90;;;;;;5051914;28;20048;-70
2022/11/09 00:37:56;;;;;;;7.45;2.17;;;13.50;99.90;;;;;;5053892;28;20124;-70
2022/11/09 00:40:22;;;;;;;6.93;2.30;;;13.60;99.90;;;;;;5053151;28;20029;-70
2022/11/09 00:42:47;;;;;;;5.47;1.88;;;13.50;99.90;;;;;;5070278;28;20033;-70
2022/11/09 00:45:13;;;;;;;7.88;2.45;;;13.50;99.90;;;;;;5052703;28;20036;-70
2022/11/09 00:47:38;;;;;;;6.25;2.67;;;13.50;99.90;;;;;;5052702;28;20033;-70
2022/11/09 00:50:05;;;;;;;7.30;2.40;;;13.40;99.90;;;;;;5051989;28;20059;-70
2022/11/09 00:52:31;;;;;;;8.85;2.47;;;13.40;99.90;;;;;;5035984;28;20044;-70
2022/11/09 00:54:56;;;;;;;5.95;2.35;;;13.30;99.90;;;;;;5034652;28;20512;-70
2022/11/09 00:57:22;;;;;;;6.13;2.00;;;13.30;99.90;;;;;;5053400;28;20067;-70
2022/11/09 00:59:47;;;;;;;4.95;1.98;;;13.30;99.90;;;;;;5052121;28;20055;-70
2022/11/09 01:02:13;;;;;;;7.68;2.40;;;13.30;99.90;;;;;;5052856;28;20041;-70
2022/11/09 01:04:39;;;;;;;6.18;2.10;;;13.40;99.90;;;;;;5052481;28;20051;-70
2022/11/09 01:07:06;;;;;;;7.25;2.03;;;13.40;99.90;;;;;;5053232;28;20482;-70
2022/11/09 01:09:32;;;;;;;7.75;2.30;;;13.40;99.90;;;;;;5068723;28;20037;-70
2022/11/09 01:11:57;;;;;;;7.22;1.90;;;13.40;99.90;;;;;;5053038;28;20041;-70
2022/11/09 01:14:23;;;;;;;5.95;2.05;;;13.50;99.90;;;;;;5052849;28;20045;-70
2022/11/09 01:16:48;;;;;;;9.15;1.90;;;13.50;99.90;;;;;;5068650;28;20044;-70
2022/11/09 01:19:14;;;;;;;8.52;2.35;;;13.50;99.90;;;;;;5052776;28;20036;-70
2022/11/09 01:21:40;;;;;;;7.65;1.90;;;13.50;99.90;;;;;;5051364;28;20124;-70
2022/11/09 01:24:05;;;;;;;5.93;2.00;;;13.50;99.90;;;;;;5051696;28;20171;-70
2022/11/09 01:26:32;;;;;;;5.50;1.90;;;13.50;99.90;;;;;;5052903;28;20080;-70
2022/11/09 01:28:58;;;;;;;7.15;2.05;;;13.50;99.90;;;;;;5052626;28;20489;-70
2022/11/09 01:31:24;;;;;;;6.97;2.20;;;13.50;99.90;;;;;;5051450;28;20128;-70
2022/11/09 01:33:50;;;;;;;8.18;2.20;;;13.50;99.90;;;;;;5050784;28;20037;-70
2022/11/09 01:36:18;;;;;;;8.13;2.40;;;13.40;99.90;;;;;;5052415;28;20033;-70
2022/11/09 01:38:43;;;;;;;6.97;2.10;;;13.50;99.90;;;;;;5052479;28;20040;-70
2022/11/09 01:41:16;;;;;;;7.18;2.17;;;13.50;99.90;;;;;;5051339;28;20400;-70
2022/11/09 01:43:41;;;;;;;;;;;13.40;99.90;;;;;;5068842;28;20080;-70
2022/11/09 01:46:21;;;;;;;7.38;2.03;;;13.40;99.90;;;;;;5052221;28;19960;-70
2022/11/09 01:48:55;;;;;;;8.48;2.17;;;13.40;99.90;;;;;;5052606;28;20083;-70
2022/11/09 01:51:24;;;;;;;8.68;3.38;;;13.40;99.90;;;;;;5051625;28;20567;-70
2022/11/09 01:53:54;;;;;;;7.20;1.70;;;13.50;99.90;;;;;;5050605;28;20132;-70
2022/11/09 01:56:20;;;;;;;7.30;1.80;;;13.40;99.90;;;;;;5052431;28;20402;-70
2022/11/09 01:59:08;;;;;;;7.80;2.05;;;13.40;99.90;;;;;;5052450;28;20036;-70
2022/11/09 02:01:35;;;;;;;8.52;2.05;;;13.50;99.90;;;;;;5034859;28;20091;-70
2022/11/09 02:04:12;;;;;;;8.70;2.28;;;13.40;99.90;;;;;;5051255;28;20091;-70
2022/11/09 02:06:38;;;;;;;5.97;1.70;;;13.40;99.90;;;;;;5023796;28;20049;-70
2022/11/09 02:09:26;;;;;;;7.32;1.88;;;13.40;99.90;;;;;;5015679;28;20410;-70
2022/11/09 02:11:52;;;;;;;7.63;2.03;;;13.40;99.90;;;;;;5066432;28;20111;-70
2022/11/09 02:14:21;;;;;;;8.10;2.10;;;13.40;99.90;;;;;;5051862;28;20052;-70
2022/11/09 02:16:47;;;;;;;6.47;2.10;;;13.40;99.90;;;;;;5034876;28;20041;-70
2022/11/09 02:19:12;;;;;;;10.13;2.20;;;13.30;99.90;;;;;;5051789;28;20048;-70
2022/11/09 02:21:38;;;;;;;9.48;2.30;;;13.30;99.90;;;;;;5051852;28;20083;-70
2022/11/09 02:24:04;;;;;;;6.97;1.92;;;13.30;99.90;;;;;;5068621;28;20388;-70
2022/11/09 02:26:40;;;;;;;5.88;2.10;;;13.30;99.90;;;;;;5066802;28;20077;-70
2022/11/09 02:29:08;;;;;;;8.82;2.58;;;13.30;99.90;;;;;;5051915;28;20041;-70
2022/11/09 02:31:38;;;;;;;9.95;3.03;;;13.30;99.90;;;;;;5035222;28;20041;-70
2022/11/09 02:34:10;;;;;;;6.93;2.15;;;13.20;99.90;;;;;;5050738;28;20048;-70
2022/11/09 02:36:36;;;;;;;7.57;2.33;;;13.20;99.90;;;;;;5054086;28;20072;-70
2022/11/09 02:39:02;;;;;;;6.50;2.03;;;13.20;99.90;;;;;;5055868;28;20044;-70
2022/11/09 02:41:30;;;;;;;8.15;1.98;;;13.20;99.90;;;;;;5055389;28;20071;-70
2022/11/09 02:43:57;;;;;;;7.95;2.28;;;13.30;99.90;;;;;;5069456;28;20493;-70
2022/11/09 02:46:36;;;;;;;7.10;2.17;;;13.20;99.90;;;;;;5054115;28;20043;-70
2022/11/09 02:49:02;;;;;;;6.43;1.88;;;13.20;99.90;;;;;;5042239;28;20065;-70
2022/11/09 02:51:28;;;;;;;6.03;1.83;;;13.30;99.90;;;;;;5039528;28;20037;-70
2022/11/09 02:53:54;;;;;;;7.07;2.15;;;13.30;99.90;;;;;;5055343;28;20039;-70
2022/11/09 02:56:19;;;;;;;9.23;2.08;;;13.20;99.90;;;;;;5052905;28;20132;-70
2022/11/09 02:58:45;;;;;;;5.18;1.73;;;13.20;99.90;;;;;;5071134;28;20037;-70
2022/11/09 03:01:10;;;;;;;5.70;1.80;;;13.20;99.90;;;;;;5053912;28;20432;-70
2022/11/09 03:03:36;;;;;;;9.63;2.08;;;13.20;99.90;;;;;;5052566;28;20440;-70
2022/11/09 03:06:02;;;;;;;9.20;2.05;;;13.10;99.90;;;;;;5041268;28;20123;-70
2022/11/09 03:08:28;;;;;;;10.20;2.08;;;13.10;99.90;;;;;;5043029;28;20040;-70
2022/11/09 03:10:53;;;;;;;6.25;1.85;;;13.20;99.90;;;;;;5029555;28;20415;-70
2022/11/09 03:13:19;;;;;;;7.47;2.00;;;13.10;99.90;;;;;;5063844;28;20051;-70
2022/11/09 03:15:45;;;;;;;8.05;2.15;;;13.10;99.90;;;;;;5054936;28;20052;-70
2022/11/09 03:18:10;;;;;;;8.13;2.28;;;13.10;99.90;;;;;;5053003;28;20033;-70
2022/11/09 03:20:36;;;;;;;7.13;1.70;;;13.10;99.90;;;;;;5054081;28;20497;-70
2022/11/09 03:23:02;;;;;;;6.32;2.67;;;13.10;99.90;;;;;;5049153;28;20032;-70
2022/11/09 03:25:27;;;;;;;8.30;2.33;;;13.10;99.90;;;;;;5054137;28;20041;-70
2022/11/09 03:28:00;;;;;;;10.35;2.03;;;13.00;99.90;;;;;;5070520;28;20037;-70
2022/11/09 03:30:26;;;;;;;12.77;1.90;;;13.00;99.90;;;;;;5053370;28;20041;-70
2022/11/09 03:32:59;;;;;;;10.75;2.40;;;13.00;99.90;;;;;;5052863;28;20094;-70
2022/11/09 03:35:25;;;;;;;9.27;1.70;;;13.00;99.90;;;;;;5037254;28;20098;-70
2022/11/09 03:37:51;;;;;;;9.88;1.83;;;13.00;99.90;;;;;;5051777;28;20036;-70
2022/11/09 03:40:16;;;;;;;10.60;1.90;;;13.00;99.90;;;;;;5052891;28;20048;-70
2022/11/09 03:42:44;;;;;;;9.02;2.10;;;13.00;99.90;;;;;;5051085;28;20044;-70
2022/11/09 03:45:09;;;;;;;7.93;2.13;;;13.00;99.90;;;;;;5038229;28;20056;-70
2022/11/09 03:47:38;;;;;;;9.43;2.00;;;13.00;99.90;;;;;;5069042;28;20045;-70
2022/11/09 03:50:04;;;;;;;13.02;1.85;;;12.90;99.90;;;;;;5037875;28;20075;-70
2022/11/09 03:52:29;;;;;;;5.88;1.60;;;12.90;99.90;;;;;;5048294;28;20040;-70
2022/11/09 03:54:55;;;;;;;8.07;1.70;;;12.90;99.90;;;;;;5045917;28;20040;-70
2022/11/09 03:57:20;;;;;;;7.55;1.80;;;12.90;99.90;;;;;;5069952;28;20076;-70
2022/11/09 03:59:46;;;;;;;9.02;2.05;;;12.90;99.90;;;;;;5046158;28;20563;-70
2022/11/09 04:02:12;;;;;;;11.45;2.20;;;12.80;99.90;;;;;;5051753;28;20493;-70
2022/11/09 04:04:37;;;;;;;10.35;1.73;;;12.80;99.90;;;;;;5068333;28;20060;-70
2022/11/09 04:07:03;;;;;;;7.28;1.77;;;12.80;99.90;;;;;;5053198;28;20033;-70
2022/11/09 04:09:28;;;;;;;8.15;1.77;;;12.80;99.90;;;;;;5069282;28;20032;-70
2022/11/09 04:11:54;;;;;;;7.68;1.90;;;12.80;99.90;;;;;;5053966;28;20102;-70
2022/11/09 04:14:19;;;;;;;9.45;1.52;;;12.80;99.90;;;;;;5053048;28;20524;-70
2022/11/09 04:16:45;;;;;;;10.20;1.75;;;12.90;99.90;;;;;;5068922;28;20041;-70
2022/11/09 04:19:11;;;;;;;7.90;2.00;;;12.80;99.90;;;;;;5035445;28;20627;-70
2022/11/09 04:21:36;;;;;;;9.02;2.17;;;12.80;99.90;;;;;;5052209;28;20110;-70
2022/11/09 04:24:02;;;;;;;7.07;2.03;;;12.80;99.90;;;;;;5037589;28;20033;-70
2022/11/09 04:26:27;;;;;;;10.23;2.00;;;12.80;99.90;;;;;;5052488;28;20542;-70
2022/11/09 04:28:53;;;;;;;9.45;1.88;;;12.70;99.90;;;;;;5050673;28;20047;-70
2022/11/09 04:31:18;;;;;;;7.88;1.80;;;12.80;99.90;;;;;;5067742;28;20496;-70
2022/11/09 04:33:49;;;;;;;6.78;1.80;;;12.70;99.90;;;;;;5053079;28;20409;-70
2022/11/09 04:36:14;;;;;;;7.32;1.88;;;12.70;99.90;;;;;;5052508;28;20033;-70
2022/11/09 04:38:40;;;;;;;8.38;2.08;;;12.70;99.90;;;;;;5036555;28;20547;-70
2022/11/09 04:41:07;;;;;;;7.38;1.80;;;12.70;99.90;;;;;;5067792;28;20029;-70
2022/11/09 04:43:33;;;;;;;9.55;2.00;;;12.70;99.90;;;;;;5069079;28;20037;-70
2022/11/09 04:45:59;;;;;;;7.60;2.00;;;12.70;99.90;;;;;;5068382;28;20043;-70
2022/11/09 04:48:25;;;;;;;9.82;2.03;;;12.70;99.90;;;;;;5053349;28;20041;-70
2022/11/09 04:50:51;;;;;;;6.65;1.70;;;12.80;99.90;;;;;;5034486;28;20174;-70
2022/11/09 04:53:16;;;;;;;10.77;2.30;;;12.80;99.90;;;;;;5068729;28;20037;-70
2022/11/09 04:55:42;;;;;;;6.50;1.77;;;12.80;99.90;;;;;;5053050;28;20489;-70
2022/11/09 04:58:08;;;;;;;8.48;2.10;;;12.80;99.90;;;;;;5051849;28;20041;-70
2022/11/09 05:00:34;;;;;;;8.48;1.85;;;12.80;99.90;;;;;;5052534;28;20036;-70
2022/11/09 05:03:02;;;;;;;8.50;2.63;;;12.80;99.90;;;;;;5050889;28;20525;-70
2022/11/09 05:05:32;;;;;;;8.65;2.10;;;12.80;99.90;;;;;;5050934;28;20045;-70
2022/11/09 05:07:57;;;;;;;9.50;2.42;;;12.80;99.90;;;;;;5051100;28;20544;-70
2022/11/09 05:10:23;;;;;;;8.77;2.20;;;12.80;99.90;;;;;;5051644;28;20056;-70
2022/11/09 05:12:48;;;;;;;8.32;1.90;;;12.90;99.90;;;;;;5051143;28;20044;-70
2022/11/09 05:15:14;;;;;;;10.32;2.17;;;12.80;99.90;;;;;;5064026;28;20049;-70
2022/11/09 05:17:39;;;;;;;9.45;2.28;;;12.90;99.90;;;;;;5050350;28;20127;-70
2022/11/09 05:20:06;;;;;;;7.60;1.95;;;12.90;99.90;;;;;;5051564;28;20048;-70
2022/11/09 05:25:15;;;;;;;6.90;2.00;;;13.00;99.90;;;;;;5048871;28;20413;-70
2022/11/09 05:27:41;;;;;;;5.28;1.63;;;13.00;99.90;;;;;;5051390;28;20045;-70
2022/11/09 05:30:07;;;;;;;6.90;1.67;;;13.00;99.90;;;;;;5052727;28;20041;-70
2022/11/09 05:32:37;;;;;;;8.02;1.80;;;13.10;99.90;;;;;;5049665;28;20049;-70
2022/11/09 05:35:02;;;;;;;8.43;2.05;;;13.10;99.90;;;;;;5051787;28;20040;-70
2022/11/09 05:37:28;;;;;;;10.57;1.90;;;13.20;99.90;;;;;;5051373;28;20407;-70
2022/11/09 05:39:53;;;;;;;6.97;1.80;;;13.10;99.90;;;;;;5051207;28;20124;-70
2022/11/09 05:42:22;;;;;;;8.65;2.22;;;13.00;99.90;;;;;;5049194;28;20497;-69
2022/11/09 05:44:47;;;;;;;7.10;1.70;;;13.10;99.90;;;;;;5051283;28;20041;-70
2022/11/09 05:47:13;;;;;;;6.50;1.60;;;13.00;99.90;;;;;;5051166;28;20106;-70
2022/11/09 05:49:38;;;;;;;5.97;1.70;;;13.10;99.90;;;;;;5050308;28;20048;-70
2022/11/09 05:52:04;;;;;;;6.88;2.13;;;13.10;99.90;;;;;;5050368;28;20032;-70
2022/11/09 05:54:30;;;;;;;5.25;1.90;;;13.00;99.90;;;;;;5050870;28;20053;-70
2022/11/09 05:56:55;;;;;;;8.25;1.60;;;13.10;99.90;;;;;;5050759;28;20037;-69
2022/11/09 05:59:21;;;;;;;5.95;1.80;;;13.00;99.90;;;;;;5046085;28;20041;-70
2022/11/09 06:01:46;;;;;;;6.22;1.88;;;13.00;99.90;;;;;;5050343;28;20408;-70
2022/11/09 06:04:12;;;;;;;8.27;1.90;;;13.00;99.90;;;;;;5049814;28;20061;-70
2022/11/09 06:06:37;;;;;;;8.05;1.90;;;12.90;99.90;;;;;;5047757;28;20037;-70
2022/11/09 06:09:03;;;;;;;7.90;2.58;;;12.90;99.90;;;;;;5049357;28;20491;-70
2022/11/09 06:11:29;;;;;;;6.40;1.70;;;12.90;99.90;;;;;;5050740;28;20032;-70
2022/11/09 06:13:54;;;;;;;7.10;2.08;;;12.90;99.90;;;;;;5066055;28;20090;-70
2022/11/09 06:16:20;;;;;;;7.10;1.95;;;12.80;99.90;;;;;;5034786;28;20043;-70
2022/11/09 06:18:45;;;;;;;7.38;1.92;;;12.70;99.90;;;;;;5033379;28;20125;-70
2022/11/09 06:21:11;;;;;;;7.35;1.70;;;12.80;99.90;;;;;;5046982;28;20485;-70
2022/11/09 06:23:37;;;;;;;8.13;1.98;;;12.70;99.90;;;;;;5051943;28;20440;-70
2022/11/09 06:26:11;;;;;;;7.00;1.80;;;12.60;99.90;;;;;;5067820;28;20488;-71
2022/11/09 06:28:37;;;;;;;7.53;1.90;;;12.60;99.90;;;;;;5051915;28;20042;-70
2022/11/09 06:31:05;;;;;;;10.18;1.95;;;12.50;99.90;;;;;;5044321;28;20116;-70
2022/11/09 06:33:32;;;;;;;11.38;2.15;;;12.50;99.90;;;;;;5066989;28;20090;-71
2022/11/09 06:35:59;;;;;;;9.63;1.83;;;12.50;99.90;;;;;;5049637;28;20508;-70
2022/11/09 06:38:25;;;;;;;7.50;1.85;;;12.50;99.90;;;;;;5052030;28;20041;-70
2022/11/09 06:40:56;;;;;;;8.43;2.00;;;12.50;99.90;;;;;;5041362;28;20049;-70
2022/11/09 06:43:22;;;;;;;8.90;2.30;;;12.50;99.90;;;;;;5057787;28;20037;-70
2022/11/09 06:45:48;;;;;;;6.13;1.77;;;12.60;99.90;;;;;;5045948;28;20049;-70
2022/11/09 06:48:14;;;;;;;7.03;1.75;;;12.50;99.90;;;;;;5050150;28;20048;-70
2022/11/09 06:50:40;;;;;;;7.50;1.90;;;12.50;99.90;;;;;;5050701;28;20184;-70
2022/11/09 06:53:08;;;;;;;11.73;2.20;;;12.50;99.90;;;;;;5035983;28;20037;-70
2022/11/09 06:55:34;;;;;;;12.57;3.78;;;12.60;99.90;;;;;;5033766;28;20083;-70
2022/11/09 06:58:08;;;;;;;9.68;2.03;;;12.60;99.90;;;;;;5030567;28;20511;-70
2022/11/09 07:00:34;;;;;;;10.35;2.00;;;12.60;99.90;;;;;;5050074;28;20092;-70
2022/11/09 07:02:59;;;;;;;5.68;1.40;;;12.60;99.90;;;;;;5061827;28;20571;-70
2022/11/09 07:05:25;;;;;;;10.57;2.45;;;12.60;99.90;;;;;;5049963;28;20049;-70
2022/11/09 07:07:50;;;;;;;7.53;1.85;;;12.60;99.90;;;;;;5066065;28;20037;-70
2022/11/09 07:10:16;;;;;;;6.25;1.58;;;12.60;99.90;;;;;;5067337;28;20047;-70
2022/11/09 07:12:42;;;;;;;7.32;2.10;;;12.60;99.90;;;;;;5051360;28;20516;-70
2022/11/09 07:15:08;;;;;;;9.50;1.90;;;12.60;99.90;;;;;;5065348;28;20037;-70
2022/11/09 07:17:35;;;;;;;9.85;1.73;;;12.50;99.90;;;;;;5066540;28;20049;-70
2022/11/09 07:20:02;;;;;;;12.25;1.80;;;12.60;99.90;;;;;;5050368;28;20087;-70
2022/11/09 07:22:28;;;;;;;7.13;1.73;;;12.50;99.90;;;;;;5038565;28;20037;-70
2022/11/09 07:24:54;;;;;;;11.43;2.10;;;12.50;99.90;;;;;;5054744;28;20048;-70
2022/11/09 07:27:20;;;;;;;8.73;1.73;;;12.50;99.90;;;;;;5037147;28;20072;-70
2022/11/09 07:29:46;;;;;;;6.65;1.52;;;12.50;99.90;;;;;;5071581;28;20044;-70
2022/11/09 07:32:12;;;;;;;7.47;1.60;;;12.50;99.90;;;;;;5071472;28;20098;-69
2022/11/09 07:34:37;;;;;;;8.95;2.20;;;12.50;99.90;;;;;;5053748;28;20047;-70
2022/11/09 07:37:03;;;;;;;7.53;1.65;;;12.50;99.90;;;;;;5053665;28;20045;-70
2022/11/09 07:39:29;;;;;;;10.50;2.22;;;12.50;99.90;;;;;;5054349;28;20404;-70
2022/11/09 07:41:54;;;;;;;13.65;2.22;;;12.40;99.90;;;;;;5054845;28;20098;-70
2022/11/09 07:44:20;;;;;;;5.20;1.40;;;12.50;99.90;;;;;;5053766;28;20076;-70
2022/11/09 07:46:47;;;;;;;9.30;1.90;;;12.50;99.90;;;;;;5054668;28;20378;-70
2022/11/09 07:49:13;;;;;;;6.75;1.40;;;12.50;99.90;;;;;;5053002;28;20505;-80
2022/11/09 07:51:40;;;;;;;9.45;1.55;;;12.60;99.90;;;;;;5054501;28;20080;-83
2022/11/09 07:54:05;;;;;;;9.93;2.05;;;12.60;99.90;;;;;;5054710;28;20037;-70
2022/11/09 07:56:31;;;;;;;8.25;2.10;;;12.60;99.90;;;;;;5053053;28;20029;-70
2022/11/09 07:58:56;;;;;;;8.60;1.77;;;12.60;99.90;;;;;;5052839;28;20064;-70
2022/11/09 08:01:22;;;;;;;10.55;2.15;;;12.60;99.90;;;;;;5054281;28;20120;-70
2022/11/09 08:03:47;;;;;;;11.65;1.90;;;12.60;99.90;;;;;;5037608;28;20048;-71
2022/11/09 08:06:13;;;;;;;10.98;1.98;;;12.60;99.90;;;;;;5037643;28;20550;-70
2022/11/09 08:08:39;;;;;;;12.60;2.10;;;12.70;99.90;;;;;;5054472;28;20041;-69
2022/11/09 08:11:04;;;;;;;14.38;2.78;;;12.70;99.90;;;;;;5054126;28;20074;-70
2022/11/09 08:13:30;;;;;;;11.55;1.65;;;12.70;99.90;;;;;;5054104;28;20049;-70
2022/11/09 08:15:56;;;;;;;8.88;1.70;;;12.80;99.90;;;;;;5053998;28;20052;-70
2022/11/09 08:18:22;;;;;;;9.75;2.08;;;12.80;99.90;;;;;;5054086;28;20033;-70
2022/11/09 08:20:48;;;;;;;7.22;2.15;;;12.80;99.90;;;;;;5037228;28;20041;-70
2022/11/09 08:23:16;;;;;;;8.68;1.70;;;12.80;99.90;;;;;;5053951;28;20120;-70
2022/11/09 08:25:42;;;;;;;11.55;1.80;;;12.80;99.90;;;;;;5053923;28;20041;-70
2022/11/09 08:28:08;;;;;;;9.73;2.20;;;12.80;99.90;;;;;;5053018;28;20091;-70
2022/11/09 08:30:34;;;;;;;12.57;1.95;;;12.80;99.90;;;;;;5033479;28;20501;-70
2022/11/09 08:33:02;;;;;;;10.65;2.40;;;12.90;99.90;;;;;;5049881;28;20040;-70
2022/11/09 08:35:29;;;;;;;11.90;2.10;;;12.90;99.90;;;;;;5050316;28;20128;-70
2022/11/09 08:37:55;;;;;;;7.47;1.80;;;12.80;99.90;;;;;;5033809;28;20033;-70
2022/11/09 08:40:24;;;;;;;9.45;1.92;;;12.90;99.90;;;;;;5033629;28;20509;-69
2022/11/09 08:42:50;;;;;;;7.72;2.20;;;12.90;99.90;;;;;;5033661;28;20037;-70
2022/11/09 08:45:17;;;;;;;10.57;2.30;;;13.00;99.90;;;;;;5033619;28;20050;-70
2022/11/09 08:47:43;;;;;;;9.95;2.40;;;13.00;99.90;;;;;;5033598;28;20053;-70
2022/11/09 08:50:10;;;;;;;12.65;2.22;;;13.00;99.90;;;;;;5050407;28;20037;-70
2022/11/09 08:52:36;;;;;;;10.10;2.15;;;13.00;99.90;;;;;;5050323;28;20045;-70
2022/11/09 08:55:02;;;;;;;13.85;2.33;;;13.10;99.90;;;;;;5033328;28;20042;-70
2022/11/09 08:57:28;;;;;;;11.93;2.83;;;13.10;99.90;;;;;;5038746;28;20040;-70
2022/11/09 08:59:53;;;;;;;7.53;1.80;;;13.20;99.90;;;;;;5036907;28;20102;-70
2022/11/09 09:02:19;;;;;;;7.20;2.00;;;13.20;99.90;;;;;;5053329;28;20075;-70
2022/11/09 09:04:45;;;;;;;11.95;2.28;;;13.30;99.90;;;;;;5036622;28;20045;-70
2022/11/09 09:07:11;;;;;;;7.97;1.88;;;13.30;99.90;;;;;;5053188;28;20043;-70
2022/11/09 09:09:37;;;;;;;13.45;2.20;;;13.30;99.90;;;;;;5052902;28;20086;-70
2022/11/09 09:12:03;;;;;;;9.18;2.25;;;13.30;99.90;;;;;;5052944;28;20064;-70
2022/11/09 09:14:29;;;;;;;11.32;2.08;;;13.40;99.90;;;;;;5036353;28;20033;-70
2022/11/09 09:16:55;;;;;;;8.60;2.55;;;13.50;99.90;;;;;;5036383;28;20037;-70
2022/11/09 09:19:21;;;;;;;11.10;2.20;;;13.50;99.90;;;;;;5052831;28;20047;-70
2022/11/09 09:21:46;;;;;;;10.40;2.38;;;13.50;99.90;;;;;;5036172;28;20041;-70
2022/11/09 09:24:12;;;;;;;14.55;2.58;;;13.50;99.90;;;;;;5036106;28;20424;-70
2022/11/09 09:26:38;;;;;;;10.35;2.38;;;13.60;99.90;;;;;;5051964;28;20462;-70
2022/11/09 09:29:03;;;;;;;11.90;2.58;;;13.70;99.90;;;;;;5052917;28;20052;-70
2022/11/09 09:31:29;;;;;;;11.95;2.30;;;13.70;99.90;;;;;;5035968;28;20115;-70
2022/11/09 09:33:54;;;;;;;12.68;2.63;;;13.70;99.90;;;;;;5052689;28;20512;-70
2022/11/09 09:36:23;;;;;;;10.23;2.35;;;13.80;99.90;;;;;;5052536;28;20041;-70
2022/11/09 09:38:54;;;;;;;10.10;2.33;;;13.80;99.90;;;;;;5052500;28;20539;-70
2022/11/09 09:41:40;;;;;;;6.30;2.10;;;13.80;99.90;;;;;;5052441;28;20040;-70
2022/11/09 09:44:24;;;;;;;11.85;2.63;;;13.90;99.90;;;;;;5035038;28;20038;-70
2022/11/09 09:47:01;;;;;;;7.20;2.05;;;13.90;99.90;;;;;;5035787;28;20579;-70
2022/11/09 09:49:30;;;;;;;8.82;2.22;;;14.00;99.90;;;;;;5052364;28;20041;-70
2022/11/09 09:52:24;;;;;;;13.70;3.00;;;14.00;99.90;;;;;;5052253;28;20037;-70
2022/11/09 09:55:29;;;;;;;10.35;2.20;;;14.00;99.90;;;;;;5035589;28;20041;-70
2022/11/09 09:58:17;;;;;;;7.30;2.13;;;14.10;99.90;;;;;;5051188;28;20075;-70
2022/11/09 10:00:44;;;;;;;12.95;2.90;;;14.00;99.90;;;;;;5051428;28;20033;-70
2022/11/09 10:03:18;;;;;;;8.00;2.40;;;14.10;99.90;;;;;;5052051;28;20052;-70
2022/11/09 10:05:57;;;;;;;10.98;2.70;;;14.10;99.90;;;;;;5052407;28;20131;-70
2022/11/09 10:08:28;;;;;;;9.20;2.53;;;14.20;99.90;;;;;;5052023;28;20503;-70
2022/11/09 10:11:17;;;;;;;9.83;2.50;;;14.20;99.90;;;;;;5052109;28;20045;-70
2022/11/09 10:13:54;;;;;;;7.80;2.55;;;14.20;99.90;;;;;;5052290;28;20040;-70
2022/11/09 10:16:43;;;;;;;9.40;2.50;;;14.20;99.90;;;;;;5051845;28;20501;-70
2022/11/09 10:19:15;;;;;;;13.70;3.00;;;14.20;99.90;;;;;;5051948;28;20029;-70
2022/11/09 10:21:57;;;;;;;9.37;2.97;;;14.20;99.90;;;;;;5051803;28;20044;-70
2022/11/09 10:24:29;;;;;;;;;;;14.20;99.90;;;;;;5035729;28;20116;-70
2022/11/09 10:26:56;;;;;;;;;;;14.20;99.90;;;;;;5035279;28;20369;-70
2022/11/09 10:29:33;;;;;;;8.95;2.58;;;14.20;99.90;;;;;;5051930;28;19966;-70
2022/11/09 10:32:16;;;;;;;8.40;2.60;;;14.10;99.90;;;;;;5051339;28;20037;-70
2022/11/09 10:34:54;;;;;;;9.60;2.63;;;14.10;99.90;;;;;;5051642;28;20099;-70
2022/11/09 10:37:45;;;;;;;10.20;2.60;;;14.20;99.90;;;;;;5035389;28;20396;-70
2022/11/09 10:40:25;;;;;;;12.57;2.47;;;14.20;99.90;;;;;;5051771;28;20128;-70
2022/11/09 10:43:01;;;;;;;9.48;3.00;;;14.20;99.90;;;;;;5034991;28;20099;-70
2022/11/09 10:45:36;;;;;;;8.93;2.53;;;14.20;99.90;;;;;;5035031;28;20041;-70
2022/11/09 10:48:04;;;;;;;13.30;2.90;;;14.20;99.90;;;;;;5051665;28;20084;-70
2022/11/09 10:50:52;;;;;;;10.57;2.60;;;14.20;99.90;;;;;;5035433;28;20048;-70
2022/11/09 10:53:20;;;;;;;11.20;2.67;;;14.10;99.90;;;;;;5051647;28;20045;-70
2022/11/09 10:56:18;;;;;;;11.15;2.20;;;14.10;99.90;;;;;;5052858;28;20060;-70
2022/11/09 10:58:51;;;;;;;11.45;3.05;;;14.20;99.90;;;;;;5053906;28;20037;-70
2022/11/09 11:01:34;;;;;;;11.20;3.35;;;14.00;99.90;;;;;;5055792;28;20037;-70
2022/11/09 11:04:11;;;;;;;;;;;14.10;99.90;;;;;;5055807;28;20045;-70
2022/11/09 11:06:37;;;;;;;9.07;2.25;;;14.20;99.90;;;;;;5038809;28;19916;-70
2022/11/09 11:09:05;;;;;;;10.82;2.45;;;14.10;99.90;;;;;;5055351;28;20047;-70
2022/11/09 11:11:33;;;;;;;10.70;2.60;;;14.20;99.90;;;;;;5037878;28;20536;-70
2022/11/09 11:14:21;;;;;;;11.43;2.75;;;14.20;99.90;;;;;;5038550;28;20608;-71
2022/11/09 11:16:47;;;;;;;14.77;3.60;;;14.20;99.90;;;;;;5038550;28;20041;-71
2022/11/09 11:19:39;;;;;;;10.48;2.40;;;14.30;99.90;;;;;;5036243;28;20042;-69
2022/11/09 11:22:10;;;;;;;11.55;2.92;;;14.20;99.90;;;;;;5033792;28;20029;-75
2022/11/09 11:24:57;;;;;;;11.23;2.55;;;14.20;99.90;;;;;;5052726;28;20052;-70
2022/11/09 11:27:33;;;;;;;10.32;3.20;;;14.30;99.90;;;;;;5045822;28;20489;-70
2022/11/09 11:30:05;;;;;;;12.77;3.03;;;14.20;99.90;;;;;;5055220;28;20045;-70
2022/11/09 11:32:31;;;;;;;9.27;2.50;;;14.20;99.90;;;;;;5054194;28;20053;-70
2022/11/09 11:34:57;;;;;;;9.73;2.33;;;14.30;99.90;;;;;;5054779;28;20048;-70
2022/11/09 11:37:44;;;;;;;7.40;2.22;;;14.30;99.90;;;;;;5049691;28;20033;-70
2022/11/09 11:40:24;;;;;;;14.10;3.25;;;14.30;99.90;;;;;;5062693;28;20037;-70
2022/11/09 11:43:01;;;;;;;11.10;2.70;;;14.20;99.90;;;;;;5045664;28;20037;-70
2022/11/09 11:45:32;;;;;;;12.35;2.80;;;14.20;99.90;;;;;;5053605;28;20409;-70
2022/11/09 11:48:10;;;;;;;9.27;2.92;;;14.20;99.90;;;;;;5053531;28;20396;-70
2022/11/09 11:50:44;;;;;;;13.65;3.35;;;14.10;99.90;;;;;;5053870;28;20425;-70
2022/11/09 11:53:24;;;;;;;9.30;2.90;;;14.10;99.90;;;;;;5050086;28;20063;-69
2022/11/09 11:56:03;;;;;;;9.10;3.15;;;14.20;99.90;;;;;;5041314;28;20060;-69
2022/11/09 11:58:41;;;;;;;13.05;2.90;;;14.10;99.90;;;;;;5070235;28;20452;-70
2022/11/09 12:01:13;;;;;;;8.05;2.30;;;14.20;99.90;;;;;;5053124;28;20040;-70
2022/11/09 12:03:44;;;;;;;8.35;2.58;;;14.20;99.90;;;;;;5065479;28;20507;-70
2022/11/09 12:06:39;;;;;;;7.78;2.30;;;14.20;99.90;;;;;;5035612;28;20045;-70
2022/11/09 12:09:21;;;;;;;11.38;2.58;;;14.20;99.90;;;;;;5051373;28;20053;-69
2022/11/09 12:12:09;;;;;;;13.40;2.15;;;14.20;99.90;;;;;;5035704;28;20561;-70
2022/11/09 12:14:57;;;;;;;13.65;2.45;;;14.20;99.90;;;;;;4999453;28;20049;-70
2022/11/09 12:17:51;;;;;;;10.27;2.30;;;14.20;99.90;;;;;;5034897;28;20045;-69
2022/11/09 12:20:41;;;;;;;10.55;2.28;;;14.10;99.90;;;;;;5049369;28;20033;-70
2022/11/09 12:23:30;;;;;;;11.05;2.17;;;14.10;99.90;;;;;;5069433;28;20047;-69
2022/11/09 12:26:13;;;;;;;8.07;2.03;;;14.10;99.90;;;;;;5058261;28;20127;-69
2022/11/09 12:28:41;;;;;;;8.43;2.00;;;14.10;99.90;;;;;;5050357;28;20052;-70
2022/11/09 12:31:26;;;;;;;10.52;1.88;;;14.00;99.90;;;;;;5049436;28;20128;-69
2022/11/09 12:34:06;;;;;;;10.80;2.05;;;14.00;99.90;;;;;;5050077;28;20051;-69
2022/11/09 12:36:39;;;;;;;11.02;2.67;;;13.90;99.90;;;;;;5037148;28;20049;-70
2022/11/09 12:39:40;;;;;;;12.63;2.40;;;13.90;99.90;;;;;;5043555;28;20067;-69
2022/11/09 12:42:14;;;;;;;10.05;2.42;;;13.90;99.90;;;;;;5049597;28;20041;-69
2022/11/09 12:45:12;;;;;;;6.70;1.85;;;14.00;99.90;;;;;;5033778;28;20044;-69
2022/11/09 12:47:41;;;;;;;7.38;1.75;;;14.10;99.90;;;;;;5041398;28;20040;-70
2022/11/09 12:50:15;;;;;;;7.50;2.03;;;14.00;99.90;;;;;;5009868;28;20100;-69
2022/11/09 12:52:42;;;;;;;9.52;1.80;;;14.10;99.90;;;;;;4983099;28;20049;-70
2022/11/09 12:55:17;;;;;;;7.22;1.80;;;14.10;99.90;;;;;;5011779;28;20042;-70
2022/11/09 12:57:47;;;;;;;13.00;2.03;;;14.10;99.90;;;;;;4994407;28;20095;-69
2022/11/09 13:00:34;;;;;;;8.15;1.92;;;14.00;99.90;;;;;;4992466;28;20066;-70